sensor_id;sensor_type;location;lat;lon;timestamp;P1;durP1;ratioP1;P2;durP2;ratioP2
59093;SDS011;44880;52.814;18.270;2023-09-07T00:00:00;16.40;;;11.00;;
59093;SDS011;44880;52.814;18.270;2023-09-07T00:03:00;14.10;;;10.20;;
59093;SDS011;44880;52.814;18.270;2023-09-07T00:05:33;14.20;;;9.40;;
59093;SDS011;44880;52.814;18.270;2023-09-07T00:08:06;14.20;;;10.30;;
59093;SDS011;44880;52.814;18.270;2023-09-07T00:10:37;14.00;;;9.90;;
59093;SDS011;44880;52.814;18.270;2023-09-07T00:13:10;14.30;;;9.90;;
59093;SDS011;44880;52.814;18.270;2023-09-07T00:15:42;14.10;;;9.60;;
59093;SDS011;44880;52.814;18.270;2023-09-07T00:18:15;15.10;;;10.90;;
59093;SDS011;44880;52.814;18.270;2023-09-07T00:20:47;14.10;;;10.30;;
59093;SDS011;44880;52.814;18.270;2023-09-07T00:23:19;13.90;;;10.30;;
59093;SDS011;44880;52.814;18.270;2023-09-07T00:28:21;13.60;;;9.70;;
59093;SDS011;44880;52.814;18.270;2023-09-07T00:30:54;14.00;;;9.40;;
59093;SDS011;44880;52.814;18.270;2023-09-07T00:33:26;14.40;;;9.10;;
59093;SDS011;44880;52.814;18.270;2023-09-07T00:36:00;15.40;;;9.00;;
59093;SDS011;44880;52.814;18.270;2023-09-07T00:38:33;15.10;;;9.70;;
59093;SDS011;44880;52.814;18.270;2023-09-07T00:41:04;13.40;;;9.30;;
59093;SDS011;44880;52.814;18.270;2023-09-07T00:43:36;14.50;;;9.70;;
59093;SDS011;44880;52.814;18.270;2023-09-07T00:46:09;13.80;;;9.90;;
59093;SDS011;44880;52.814;18.270;2023-09-07T00:48:42;12.80;;;9.10;;
59093;SDS011;44880;52.814;18.270;2023-09-07T00:51:13;16.00;;;9.70;;
59093;SDS011;44880;52.814;18.270;2023-09-07T00:53:45;13.60;;;10.00;;
59093;SDS011;44880;52.814;18.270;2023-09-07T00:56:17;14.60;;;9.80;;
59093;SDS011;44880;52.814;18.270;2023-09-07T00:58:48;13.00;;;8.80;;
59093;SDS011;44880;52.814;18.270;2023-09-07T01:01:20;14.50;;;8.70;;
59093;SDS011;44880;52.814;18.270;2023-09-07T01:06:26;13.60;;;8.60;;
59093;SDS011;44880;52.814;18.270;2023-09-07T01:09:03;13.30;;;9.00;;
59093;SDS011;44880;52.814;18.270;2023-09-07T01:11:41;13.80;;;9.10;;
59093;SDS011;44880;52.814;18.270;2023-09-07T01:14:12;13.60;;;9.40;;
59093;SDS011;44880;52.814;18.270;2023-09-07T01:16:44;15.20;;;10.00;;
59093;SDS011;44880;52.814;18.270;2023-09-07T01:19:16;14.80;;;9.30;;
59093;SDS011;44880;52.814;18.270;2023-09-07T01:21:47;16.80;;;11.50;;
59093;SDS011;44880;52.814;18.270;2023-09-07T01:24:20;13.70;;;9.40;;
59093;SDS011;44880;52.814;18.270;2023-09-07T01:26:52;14.20;;;9.10;;
59093;SDS011;44880;52.814;18.270;2023-09-07T01:29:24;13.60;;;9.10;;
59093;SDS011;44880;52.814;18.270;2023-09-07T01:31:57;12.60;;;8.00;;
59093;SDS011;44880;52.814;18.270;2023-09-07T01:34:29;14.10;;;9.40;;
59093;SDS011;44880;52.814;18.270;2023-09-07T01:37:00;15.50;;;10.20;;
59093;SDS011;44880;52.814;18.270;2023-09-07T01:39:32;12.90;;;9.20;;
59093;SDS011;44880;52.814;18.270;2023-09-07T01:42:04;13.40;;;8.90;;
59093;SDS011;44880;52.814;18.270;2023-09-07T01:47:06;15.10;;;9.70;;
59093;SDS011;44880;52.814;18.270;2023-09-07T01:49:38;15.30;;;9.50;;
59093;SDS011;44880;52.814;18.270;2023-09-07T01:52:10;16.60;;;10.10;;
59093;SDS011;44880;52.814;18.270;2023-09-07T01:54:41;16.00;;;9.40;;
59093;SDS011;44880;52.814;18.270;2023-09-07T01:57:13;13.00;;;9.00;;
59093;SDS011;44880;52.814;18.270;2023-09-07T01:59:45;13.00;;;8.60;;
59093;SDS011;44880;52.814;18.270;2023-09-07T02:02:17;13.70;;;9.00;;
59093;SDS011;44880;52.814;18.270;2023-09-07T02:04:49;12.70;;;8.50;;
59093;SDS011;44880;52.814;18.270;2023-09-07T02:07:21;13.40;;;8.10;;
59093;SDS011;44880;52.814;18.270;2023-09-07T02:09:53;14.50;;;9.00;;
59093;SDS011;44880;52.814;18.270;2023-09-07T02:14:55;15.20;;;9.40;;
59093;SDS011;44880;52.814;18.270;2023-09-07T02:17:28;14.10;;;9.30;;
59093;SDS011;44880;52.814;18.270;2023-09-07T02:20:00;14.30;;;9.00;;
59093;SDS011;44880;52.814;18.270;2023-09-07T02:22:37;13.50;;;9.00;;
59093;SDS011;44880;52.814;18.270;2023-09-07T02:25:08;12.70;;;8.30;;
59093;SDS011;44880;52.814;18.270;2023-09-07T02:27:40;12.30;;;8.00;;
59093;SDS011;44880;52.814;18.270;2023-09-07T02:30:12;12.70;;;8.80;;
59093;SDS011;44880;52.814;18.270;2023-09-07T02:35:14;14.20;;;8.80;;
59093;SDS011;44880;52.814;18.270;2023-09-07T02:37:45;12.90;;;8.90;;
59093;SDS011;44880;52.814;18.270;2023-09-07T02:40:17;13.80;;;8.50;;
59093;SDS011;44880;52.814;18.270;2023-09-07T02:42:49;13.30;;;8.80;;
59093;SDS011;44880;52.814;18.270;2023-09-07T02:45:21;13.40;;;9.90;;
59093;SDS011;44880;52.814;18.270;2023-09-07T02:47:52;14.30;;;9.40;;
59093;SDS011;44880;52.814;18.270;2023-09-07T02:50:24;13.00;;;8.00;;
59093;SDS011;44880;52.814;18.270;2023-09-07T02:55:27;12.40;;;8.40;;
59093;SDS011;44880;52.814;18.270;2023-09-07T02:57:59;13.00;;;8.50;;
59093;SDS011;44880;52.814;18.270;2023-09-07T03:00:32;12.00;;;7.90;;
59093;SDS011;44880;52.814;18.270;2023-09-07T03:03:04;13.80;;;8.10;;
59093;SDS011;44880;52.814;18.270;2023-09-07T03:05:36;14.50;;;9.00;;
59093;SDS011;44880;52.814;18.270;2023-09-07T03:08:09;14.80;;;9.90;;
59093;SDS011;44880;52.814;18.270;2023-09-07T03:10:41;13.60;;;9.70;;
59093;SDS011;44880;52.814;18.270;2023-09-07T03:13:13;14.70;;;10.40;;
59093;SDS011;44880;52.814;18.270;2023-09-07T03:15:45;13.30;;;8.70;;
59093;SDS011;44880;52.814;18.270;2023-09-07T03:18:16;15.60;;;9.50;;
59093;SDS011;44880;52.814;18.270;2023-09-07T03:20:49;13.40;;;9.00;;
59093;SDS011;44880;52.814;18.270;2023-09-07T03:23:23;15.40;;;9.00;;
59093;SDS011;44880;52.814;18.270;2023-09-07T03:25:54;11.60;;;8.20;;
59093;SDS011;44880;52.814;18.270;2023-09-07T03:30:56;13.80;;;8.80;;
59093;SDS011;44880;52.814;18.270;2023-09-07T03:33:28;13.80;;;9.30;;
59093;SDS011;44880;52.814;18.270;2023-09-07T03:36:00;13.80;;;8.70;;
59093;SDS011;44880;52.814;18.270;2023-09-07T03:38:32;13.80;;;8.90;;
59093;SDS011;44880;52.814;18.270;2023-09-07T03:41:03;13.20;;;9.60;;
59093;SDS011;44880;52.814;18.270;2023-09-07T03:43:35;15.00;;;9.40;;
59093;SDS011;44880;52.814;18.270;2023-09-07T03:46:07;14.40;;;9.40;;
59093;SDS011;44880;52.814;18.270;2023-09-07T03:48:38;13.80;;;8.60;;
59093;SDS011;44880;52.814;18.270;2023-09-07T03:51:10;14.00;;;8.10;;
59093;SDS011;44880;52.814;18.270;2023-09-07T03:53:42;13.00;;;7.40;;
59093;SDS011;44880;52.814;18.270;2023-09-07T03:56:14;12.40;;;7.60;;
59093;SDS011;44880;52.814;18.270;2023-09-07T03:58:45;12.90;;;8.50;;
59093;SDS011;44880;52.814;18.270;2023-09-07T04:01:17;15.00;;;8.80;;
59093;SDS011;44880;52.814;18.270;2023-09-07T04:03:49;12.60;;;8.40;;
59093;SDS011;44880;52.814;18.270;2023-09-07T04:06:21;13.50;;;8.80;;
59093;SDS011;44880;52.814;18.270;2023-09-07T04:08:53;12.60;;;9.00;;
59093;SDS011;44880;52.814;18.270;2023-09-07T04:11:25;14.20;;;9.30;;
59093;SDS011;44880;52.814;18.270;2023-09-07T04:13:56;14.80;;;8.90;;
59093;SDS011;44880;52.814;18.270;2023-09-07T04:16:28;14.00;;;8.70;;
59093;SDS011;44880;52.814;18.270;2023-09-07T04:19:00;13.90;;;9.50;;
59093;SDS011;44880;52.814;18.270;2023-09-07T04:21:32;13.10;;;8.90;;
59093;SDS011;44880;52.814;18.270;2023-09-07T04:24:04;13.50;;;8.60;;
59093;SDS011;44880;52.814;18.270;2023-09-07T04:26:37;17.30;;;9.50;;
59093;SDS011;44880;52.814;18.270;2023-09-07T04:29:08;13.50;;;8.30;;
59093;SDS011;44880;52.814;18.270;2023-09-07T04:31:41;15.90;;;8.80;;
59093;SDS011;44880;52.814;18.270;2023-09-07T04:34:13;16.80;;;10.30;;
59093;SDS011;44880;52.814;18.270;2023-09-07T04:36:45;14.80;;;9.00;;
59093;SDS011;44880;52.814;18.270;2023-09-07T04:39:18;15.40;;;9.90;;
59093;SDS011;44880;52.814;18.270;2023-09-07T04:41:49;15.60;;;10.10;;
59093;SDS011;44880;52.814;18.270;2023-09-07T04:44:21;13.10;;;9.20;;
59093;SDS011;44880;52.814;18.270;2023-09-07T04:46:53;16.30;;;10.00;;
59093;SDS011;44880;52.814;18.270;2023-09-07T04:49:26;15.10;;;9.40;;
59093;SDS011;44880;52.814;18.270;2023-09-07T04:54:28;17.10;;;8.90;;
59093;SDS011;44880;52.814;18.270;2023-09-07T04:57:00;14.80;;;9.30;;
59093;SDS011;44880;52.814;18.270;2023-09-07T04:59:31;13.50;;;9.20;;
59093;SDS011;44880;52.814;18.270;2023-09-07T05:02:03;14.50;;;10.40;;
59093;SDS011;44880;52.814;18.270;2023-09-07T05:04:35;15.90;;;10.40;;
59093;SDS011;44880;52.814;18.270;2023-09-07T05:09:37;15.40;;;10.50;;
59093;SDS011;44880;52.814;18.270;2023-09-07T05:14:40;13.80;;;9.30;;
59093;SDS011;44880;52.814;18.270;2023-09-07T05:17:12;13.10;;;8.90;;
59093;SDS011;44880;52.814;18.270;2023-09-07T05:19:44;14.80;;;9.10;;
59093;SDS011;44880;52.814;18.270;2023-09-07T05:22:16;13.40;;;8.70;;
59093;SDS011;44880;52.814;18.270;2023-09-07T05:24:49;14.50;;;9.30;;
59093;SDS011;44880;52.814;18.270;2023-09-07T05:27:21;14.40;;;9.00;;
59093;SDS011;44880;52.814;18.270;2023-09-07T05:29:52;14.90;;;9.20;;
59093;SDS011;44880;52.814;18.270;2023-09-07T05:32:24;18.30;;;11.00;;
59093;SDS011;44880;52.814;18.270;2023-09-07T05:34:56;17.70;;;11.70;;
59093;SDS011;44880;52.814;18.270;2023-09-07T05:37:28;16.30;;;10.30;;
59093;SDS011;44880;52.814;18.270;2023-09-07T05:39:59;15.30;;;10.20;;
59093;SDS011;44880;52.814;18.270;2023-09-07T05:42:32;16.50;;;10.40;;
59093;SDS011;44880;52.814;18.270;2023-09-07T05:45:05;15.70;;;10.10;;
59093;SDS011;44880;52.814;18.270;2023-09-07T05:47:38;13.90;;;9.30;;
59093;SDS011;44880;52.814;18.270;2023-09-07T05:50:10;16.00;;;10.20;;
59093;SDS011;44880;52.814;18.270;2023-09-07T05:52:42;16.50;;;11.10;;
59093;SDS011;44880;52.814;18.270;2023-09-07T05:55:13;18.40;;;12.00;;
59093;SDS011;44880;52.814;18.270;2023-09-07T05:57:45;18.50;;;11.60;;
59093;SDS011;44880;52.814;18.270;2023-09-07T06:00:19;17.20;;;11.40;;
59093;SDS011;44880;52.814;18.270;2023-09-07T06:02:52;16.40;;;10.20;;
59093;SDS011;44880;52.814;18.270;2023-09-07T06:05:24;15.40;;;10.80;;
59093;SDS011;44880;52.814;18.270;2023-09-07T06:07:57;18.50;;;10.60;;
59093;SDS011;44880;52.814;18.270;2023-09-07T06:10:29;16.30;;;10.80;;
59093;SDS011;44880;52.814;18.270;2023-09-07T06:13:01;16.60;;;10.80;;
59093;SDS011;44880;52.814;18.270;2023-09-07T06:15:34;15.90;;;11.10;;
59093;SDS011;44880;52.814;18.270;2023-09-07T06:18:07;15.50;;;10.80;;
59093;SDS011;44880;52.814;18.270;2023-09-07T06:20:40;16.10;;;11.40;;
59093;SDS011;44880;52.814;18.270;2023-09-07T06:23:12;17.30;;;11.60;;
59093;SDS011;44880;52.814;18.270;2023-09-07T06:28:14;18.00;;;12.30;;
59093;SDS011;44880;52.814;18.270;2023-09-07T06:30:46;17.30;;;12.00;;
59093;SDS011;44880;52.814;18.270;2023-09-07T06:33:19;15.90;;;11.20;;
59093;SDS011;44880;52.814;18.270;2023-09-07T06:35:51;17.20;;;11.90;;
59093;SDS011;44880;52.814;18.270;2023-09-07T06:38:24;16.90;;;11.20;;
59093;SDS011;44880;52.814;18.270;2023-09-07T06:40:55;17.20;;;11.10;;
59093;SDS011;44880;52.814;18.270;2023-09-07T06:43:27;16.20;;;10.80;;
59093;SDS011;44880;52.814;18.270;2023-09-07T06:46:06;16.00;;;10.90;;
59093;SDS011;44880;52.814;18.270;2023-09-07T06:48:44;17.50;;;12.50;;
59093;SDS011;44880;52.814;18.270;2023-09-07T06:51:16;18.10;;;12.30;;
59093;SDS011;44880;52.814;18.270;2023-09-07T06:53:48;16.70;;;12.10;;
59093;SDS011;44880;52.814;18.270;2023-09-07T06:56:23;17.80;;;11.50;;
59093;SDS011;44880;52.814;18.270;2023-09-07T06:58:57;16.80;;;11.70;;
59093;SDS011;44880;52.814;18.270;2023-09-07T07:01:28;16.30;;;10.80;;
59093;SDS011;44880;52.814;18.270;2023-09-07T07:06:33;16.30;;;10.90;;
59093;SDS011;44880;52.814;18.270;2023-09-07T07:09:05;17.00;;;11.70;;
59093;SDS011;44880;52.814;18.270;2023-09-07T07:11:38;17.60;;;12.60;;
59093;SDS011;44880;52.814;18.270;2023-09-07T07:14:11;17.40;;;11.70;;
59093;SDS011;44880;52.814;18.270;2023-09-07T07:16:52;17.10;;;12.00;;
59093;SDS011;44880;52.814;18.270;2023-09-07T07:19:25;17.80;;;13.00;;
59093;SDS011;44880;52.814;18.270;2023-09-07T07:22:02;16.60;;;11.70;;
59093;SDS011;44880;52.814;18.270;2023-09-07T07:24:54;18.40;;;12.10;;
59093;SDS011;44880;52.814;18.270;2023-09-07T07:27:28;16.00;;;11.70;;
59093;SDS011;44880;52.814;18.270;2023-09-07T07:29:59;17.20;;;10.80;;
59093;SDS011;44880;52.814;18.270;2023-09-07T07:32:32;15.60;;;11.50;;
59093;SDS011;44880;52.814;18.270;2023-09-07T07:37:35;18.30;;;12.80;;
59093;SDS011;44880;52.814;18.270;2023-09-07T07:40:09;17.40;;;12.20;;
59093;SDS011;44880;52.814;18.270;2023-09-07T07:42:47;16.30;;;12.20;;
59093;SDS011;44880;52.814;18.270;2023-09-07T07:45:21;18.10;;;12.70;;
59093;SDS011;44880;52.814;18.270;2023-09-07T07:47:53;17.20;;;11.90;;
59093;SDS011;44880;52.814;18.270;2023-09-07T07:50:27;16.00;;;11.40;;
59093;SDS011;44880;52.814;18.270;2023-09-07T07:53:00;15.70;;;11.10;;
59093;SDS011;44880;52.814;18.270;2023-09-07T07:55:33;17.40;;;12.40;;
59093;SDS011;44880;52.814;18.270;2023-09-07T07:58:08;19.10;;;12.00;;
59093;SDS011;44880;52.814;18.270;2023-09-07T08:00:41;16.70;;;11.50;;
59093;SDS011;44880;52.814;18.270;2023-09-07T08:03:16;15.10;;;11.50;;
59093;SDS011;44880;52.814;18.270;2023-09-07T08:05:49;17.70;;;12.20;;
59093;SDS011;44880;52.814;18.270;2023-09-07T08:08:21;16.40;;;11.10;;
59093;SDS011;44880;52.814;18.270;2023-09-07T08:10:54;19.30;;;11.30;;
59093;SDS011;44880;52.814;18.270;2023-09-07T08:13:36;15.50;;;11.30;;
59093;SDS011;44880;52.814;18.270;2023-09-07T08:16:08;16.00;;;10.30;;
59093;SDS011;44880;52.814;18.270;2023-09-07T08:18:41;14.80;;;10.40;;
59093;SDS011;44880;52.814;18.270;2023-09-07T08:21:27;15.10;;;11.10;;
59093;SDS011;44880;52.814;18.270;2023-09-07T08:26:44;14.90;;;9.80;;
59093;SDS011;44880;52.814;18.270;2023-09-07T08:29:19;14.80;;;11.10;;
59093;SDS011;44880;52.814;18.270;2023-09-07T08:31:55;15.70;;;11.30;;
59093;SDS011;44880;52.814;18.270;2023-09-07T08:38:43;13.70;;;9.80;;
59093;SDS011;44880;52.814;18.270;2023-09-07T08:41:38;13.70;;;10.00;;
59093;SDS011;44880;52.814;18.270;2023-09-07T08:44:12;14.20;;;10.50;;
59093;SDS011;44880;52.814;18.270;2023-09-07T08:47:00;13.80;;;10.30;;
59093;SDS011;44880;52.814;18.270;2023-09-07T08:49:33;13.10;;;9.40;;
59093;SDS011;44880;52.814;18.270;2023-09-07T08:52:05;14.60;;;9.90;;
59093;SDS011;44880;52.814;18.270;2023-09-07T08:54:54;12.40;;;7.60;;
59093;SDS011;44880;52.814;18.270;2023-09-07T08:57:28;12.20;;;8.90;;
59093;SDS011;44880;52.814;18.270;2023-09-07T09:00:02;14.00;;;8.30;;
59093;SDS011;44880;52.814;18.270;2023-09-07T09:03:08;13.60;;;8.60;;
59093;SDS011;44880;52.814;18.270;2023-09-07T09:05:42;11.50;;;8.40;;
59093;SDS011;44880;52.814;18.270;2023-09-07T09:08:45;12.00;;;8.00;;
59093;SDS011;44880;52.814;18.270;2023-09-07T09:17:46;13.70;;;8.70;;
59093;SDS011;44880;52.814;18.270;2023-09-07T09:20:23;12.90;;;7.60;;
59093;SDS011;44880;52.814;18.270;2023-09-07T09:23:36;11.40;;;7.60;;
59093;SDS011;44880;52.814;18.270;2023-09-07T09:29:04;10.50;;;7.00;;
59093;SDS011;44880;52.814;18.270;2023-09-07T09:31:35;12.90;;;7.80;;
59093;SDS011;44880;52.814;18.270;2023-09-07T09:34:37;13.90;;;8.40;;
59093;SDS011;44880;52.814;18.270;2023-09-07T09:37:13;11.90;;;7.30;;
59093;SDS011;44880;52.814;18.270;2023-09-07T09:40:01;10.40;;;6.60;;
59093;SDS011;44880;52.814;18.270;2023-09-07T09:42:38;11.60;;;7.00;;
59093;SDS011;44880;52.814;18.270;2023-09-07T09:45:12;10.80;;;6.50;;
59093;SDS011;44880;52.814;18.270;2023-09-07T09:48:06;11.20;;;7.20;;
59093;SDS011;44880;52.814;18.270;2023-09-07T09:50:38;10.60;;;6.50;;
59093;SDS011;44880;52.814;18.270;2023-09-07T09:56:07;11.00;;;6.00;;
59093;SDS011;44880;52.814;18.270;2023-09-07T09:58:39;10.50;;;5.80;;
59093;SDS011;44880;52.814;18.270;2023-09-07T10:01:38;10.20;;;5.70;;
59093;SDS011;44880;52.814;18.270;2023-09-07T10:04:14;10.90;;;6.30;;
59093;SDS011;44880;52.814;18.270;2023-09-07T10:07:06;11.10;;;6.70;;
59093;SDS011;44880;52.814;18.270;2023-09-07T10:09:37;12.20;;;6.00;;
59093;SDS011;44880;52.814;18.270;2023-09-07T10:12:13;10.40;;;6.20;;
59093;SDS011;44880;52.814;18.270;2023-09-07T10:15:23;9.30;;;6.10;;
59093;SDS011;44880;52.814;18.270;2023-09-07T10:20:51;11.00;;;6.30;;
59093;SDS011;44880;52.814;18.270;2023-09-07T10:26:29;9.80;;;5.40;;
59093;SDS011;44880;52.814;18.270;2023-09-07T10:29:01;10.60;;;5.20;;
59093;SDS011;44880;52.814;18.270;2023-09-07T10:34:37;11.20;;;5.30;;
59093;SDS011;44880;52.814;18.270;2023-09-07T10:40:08;11.60;;;5.90;;
59093;SDS011;44880;52.814;18.270;2023-09-07T10:45:36;8.70;;;4.30;;
59093;SDS011;44880;52.814;18.270;2023-09-07T10:48:08;10.60;;;4.70;;
59093;SDS011;44880;52.814;18.270;2023-09-07T10:50:59;10.70;;;5.80;;
59093;SDS011;44880;52.814;18.270;2023-09-07T10:53:31;9.00;;;5.20;;
59093;SDS011;44880;52.814;18.270;2023-09-07T10:56:04;9.40;;;5.00;;
59093;SDS011;44880;52.814;18.270;2023-09-07T11:01:32;8.90;;;4.80;;
59093;SDS011;44880;52.814;18.270;2023-09-07T11:07:02;7.60;;;3.90;;
59093;SDS011;44880;52.814;18.270;2023-09-07T11:09:35;8.70;;;4.00;;
59093;SDS011;44880;52.814;18.270;2023-09-07T11:12:49;8.90;;;4.50;;
59093;SDS011;44880;52.814;18.270;2023-09-07T11:19:34;9.10;;;4.10;;
59093;SDS011;44880;52.814;18.270;2023-09-07T11:22:08;8.30;;;4.20;;
59093;SDS011;44880;52.814;18.270;2023-09-07T11:25:03;8.90;;;4.20;;
59093;SDS011;44880;52.814;18.270;2023-09-07T11:27:36;8.10;;;3.90;;
59093;SDS011;44880;52.814;18.270;2023-09-07T11:30:37;7.90;;;4.00;;
59093;SDS011;44880;52.814;18.270;2023-09-07T11:33:21;8.50;;;3.90;;
59093;SDS011;44880;52.814;18.270;2023-09-07T11:36:19;8.90;;;4.10;;
59093;SDS011;44880;52.814;18.270;2023-09-07T11:38:53;8.50;;;4.00;;
59093;SDS011;44880;52.814;18.270;2023-09-07T11:44:19;7.40;;;3.90;;
59093;SDS011;44880;52.814;18.270;2023-09-07T11:46:51;7.70;;;3.60;;
59093;SDS011;44880;52.814;18.270;2023-09-07T11:49:56;7.70;;;3.80;;
59093;SDS011;44880;52.814;18.270;2023-09-07T11:52:28;8.10;;;4.00;;
59093;SDS011;44880;52.814;18.270;2023-09-07T11:55:16;7.80;;;4.20;;
59093;SDS011;44880;52.814;18.270;2023-09-07T11:57:49;9.00;;;4.10;;
59093;SDS011;44880;52.814;18.270;2023-09-07T12:00:21;8.60;;;4.00;;
59093;SDS011;44880;52.814;18.270;2023-09-07T12:03:19;8.40;;;4.50;;
59093;SDS011;44880;52.814;18.270;2023-09-07T12:05:51;7.30;;;3.70;;
59093;SDS011;44880;52.814;18.270;2023-09-07T12:11:31;9.70;;;4.20;;
59093;SDS011;44880;52.814;18.270;2023-09-07T12:14:21;9.50;;;4.00;;
59093;SDS011;44880;52.814;18.270;2023-09-07T12:16:53;7.90;;;3.90;;
59093;SDS011;44880;52.814;18.270;2023-09-07T12:19:25;8.10;;;4.00;;
59093;SDS011;44880;52.814;18.270;2023-09-07T12:22:15;7.50;;;3.50;;
59093;SDS011;44880;52.814;18.270;2023-09-07T12:24:46;7.70;;;3.90;;
59093;SDS011;44880;52.814;18.270;2023-09-07T12:27:18;8.20;;;4.10;;
59093;SDS011;44880;52.814;18.270;2023-09-07T12:30:02;8.30;;;3.90;;
59093;SDS011;44880;52.814;18.270;2023-09-07T12:32:40;8.40;;;4.20;;
59093;SDS011;44880;52.814;18.270;2023-09-07T12:35:12;7.90;;;4.10;;
59093;SDS011;44880;52.814;18.270;2023-09-07T12:37:55;8.50;;;3.90;;
59093;SDS011;44880;52.814;18.270;2023-09-07T12:40:31;9.20;;;4.20;;
59093;SDS011;44880;52.814;18.270;2023-09-07T12:43:04;8.60;;;4.10;;
59093;SDS011;44880;52.814;18.270;2023-09-07T12:45:50;7.70;;;4.00;;
59093;SDS011;44880;52.814;18.270;2023-09-07T12:48:22;7.80;;;4.10;;
59093;SDS011;44880;52.814;18.270;2023-09-07T12:50:55;9.70;;;4.10;;
59093;SDS011;44880;52.814;18.270;2023-09-07T12:56:22;7.60;;;3.50;;
59093;SDS011;44880;52.814;18.270;2023-09-07T12:58:54;9.20;;;4.00;;
59093;SDS011;44880;52.814;18.270;2023-09-07T13:01:54;7.40;;;3.60;;
59093;SDS011;44880;52.814;18.270;2023-09-07T13:04:27;7.80;;;3.70;;
59093;SDS011;44880;52.814;18.270;2023-09-07T13:07:16;7.90;;;3.70;;
59093;SDS011;44880;52.814;18.270;2023-09-07T13:09:48;7.40;;;3.40;;
59093;SDS011;44880;52.814;18.270;2023-09-07T13:12:20;7.00;;;3.80;;
59093;SDS011;44880;52.814;18.270;2023-09-07T13:17:47;8.30;;;3.80;;
59093;SDS011;44880;52.814;18.270;2023-09-07T13:20:19;8.00;;;3.60;;
59093;SDS011;44880;52.814;18.270;2023-09-07T13:23:26;7.60;;;3.50;;
59093;SDS011;44880;52.814;18.270;2023-09-07T13:28:58;7.80;;;3.50;;
59093;SDS011;44880;52.814;18.270;2023-09-07T13:31:30;9.90;;;3.90;;
59093;SDS011;44880;52.814;18.270;2023-09-07T13:34:20;8.10;;;3.90;;
59093;SDS011;44880;52.814;18.270;2023-09-07T13:36:54;7.40;;;3.60;;
59093;SDS011;44880;52.814;18.270;2023-09-07T13:39:26;8.30;;;3.90;;
59093;SDS011;44880;52.814;18.270;2023-09-07T13:44:55;8.10;;;3.50;;
59093;SDS011;44880;52.814;18.270;2023-09-07T13:47:53;8.20;;;3.90;;
59093;SDS011;44880;52.814;18.270;2023-09-07T13:50:25;7.00;;;3.30;;
59093;SDS011;44880;52.814;18.270;2023-09-07T13:52:57;14.30;;;3.80;;
59093;SDS011;44880;52.814;18.270;2023-09-07T13:55:44;7.00;;;3.30;;
59093;SDS011;44880;52.814;18.270;2023-09-07T13:58:15;7.70;;;3.50;;
59093;SDS011;44880;52.814;18.270;2023-09-07T14:00:48;7.60;;;3.80;;
59093;SDS011;44880;52.814;18.270;2023-09-07T14:03:43;8.00;;;3.70;;
59093;SDS011;44880;52.814;18.270;2023-09-07T14:06:15;8.60;;;4.00;;
59093;SDS011;44880;52.814;18.270;2023-09-07T14:11:45;7.60;;;3.40;;
59093;SDS011;44880;52.814;18.270;2023-09-07T14:14:17;9.30;;;3.80;;
59093;SDS011;44880;52.814;18.270;2023-09-07T14:19:38;8.50;;;3.80;;
59093;SDS011;44880;52.814;18.270;2023-09-07T14:22:10;7.00;;;3.50;;
59093;SDS011;44880;52.814;18.270;2023-09-07T14:24:55;9.00;;;4.00;;
59093;SDS011;44880;52.814;18.270;2023-09-07T14:27:27;7.70;;;3.50;;
59093;SDS011;44880;52.814;18.270;2023-09-07T14:29:59;7.90;;;4.00;;
59093;SDS011;44880;52.814;18.270;2023-09-07T14:35:25;6.80;;;3.10;;
59093;SDS011;44880;52.814;18.270;2023-09-07T14:37:57;8.40;;;3.70;;
59093;SDS011;44880;52.814;18.270;2023-09-07T14:40:40;7.80;;;3.30;;
59093;SDS011;44880;52.814;18.270;2023-09-07T14:43:18;7.20;;;3.50;;
59093;SDS011;44880;52.814;18.270;2023-09-07T14:45:50;7.50;;;3.50;;
59093;SDS011;44880;52.814;18.270;2023-09-07T14:51:11;8.00;;;3.60;;
59093;SDS011;44880;52.814;18.270;2023-09-07T14:53:44;7.40;;;3.40;;
59093;SDS011;44880;52.814;18.270;2023-09-07T14:59:08;7.50;;;3.70;;
59093;SDS011;44880;52.814;18.270;2023-09-07T15:01:41;7.80;;;3.60;;
59093;SDS011;44880;52.814;18.270;2023-09-07T15:04:38;8.50;;;3.60;;
59093;SDS011;44880;52.814;18.270;2023-09-07T15:07:13;7.30;;;3.50;;
59093;SDS011;44880;52.814;18.270;2023-09-07T15:10:03;8.40;;;3.60;;
59093;SDS011;44880;52.814;18.270;2023-09-07T15:12:37;8.50;;;3.60;;
59093;SDS011;44880;52.814;18.270;2023-09-07T15:15:10;7.70;;;3.80;;
59093;SDS011;44880;52.814;18.270;2023-09-07T15:20:32;8.70;;;4.20;;
59093;SDS011;44880;52.814;18.270;2023-09-07T15:23:05;9.60;;;3.80;;
59093;SDS011;44880;52.814;18.270;2023-09-07T15:25:51;7.90;;;3.80;;
59093;SDS011;44880;52.814;18.270;2023-09-07T15:28:25;7.50;;;4.00;;
59093;SDS011;44880;52.814;18.270;2023-09-07T15:30:58;10.50;;;4.10;;
59093;SDS011;44880;52.814;18.270;2023-09-07T15:33:45;10.30;;;4.20;;
59093;SDS011;44880;52.814;18.270;2023-09-07T15:36:18;8.50;;;4.70;;
59093;SDS011;44880;52.814;18.270;2023-09-07T15:38:52;9.00;;;4.30;;
59093;SDS011;44880;52.814;18.270;2023-09-07T15:41:50;8.30;;;4.20;;
59093;SDS011;44880;52.814;18.270;2023-09-07T15:44:24;8.10;;;4.40;;
59093;SDS011;44880;52.814;18.270;2023-09-07T15:47:16;8.50;;;4.30;;
59093;SDS011;44880;52.814;18.270;2023-09-07T15:49:50;8.10;;;4.70;;
59093;SDS011;44880;52.814;18.270;2023-09-07T15:52:23;8.00;;;4.10;;
59093;SDS011;44880;52.814;18.270;2023-09-07T15:55:35;10.20;;;4.70;;
59093;SDS011;44880;52.814;18.270;2023-09-07T16:01:07;8.80;;;4.80;;
59093;SDS011;44880;52.814;18.270;2023-09-07T16:03:41;8.60;;;4.20;;
59093;SDS011;44880;52.814;18.270;2023-09-07T16:06:37;8.00;;;4.50;;
59093;SDS011;44880;52.814;18.270;2023-09-07T16:09:11;8.80;;;4.60;;
59093;SDS011;44880;52.814;18.270;2023-09-07T16:14:35;9.90;;;4.90;;
59093;SDS011;44880;52.814;18.270;2023-09-07T16:17:13;9.50;;;4.20;;
59093;SDS011;44880;52.814;18.270;2023-09-07T16:20:12;8.70;;;4.80;;
59093;SDS011;44880;52.814;18.270;2023-09-07T16:22:47;9.50;;;4.80;;
59093;SDS011;44880;52.814;18.270;2023-09-07T16:26:02;9.90;;;4.40;;
59093;SDS011;44880;52.814;18.270;2023-09-07T16:31:35;8.60;;;5.10;;
59093;SDS011;44880;52.814;18.270;2023-09-07T16:37:09;8.80;;;4.90;;
59093;SDS011;44880;52.814;18.270;2023-09-07T16:39:43;9.20;;;5.30;;
59093;SDS011;44880;52.814;18.270;2023-09-07T16:42:40;9.80;;;5.30;;
59093;SDS011;44880;52.814;18.270;2023-09-07T16:45:19;8.50;;;5.40;;
59093;SDS011;44880;52.814;18.270;2023-09-07T16:48:35;8.80;;;5.50;;
59093;SDS011;44880;52.814;18.270;2023-09-07T16:51:30;9.10;;;5.70;;
59093;SDS011;44880;52.814;18.270;2023-09-07T16:54:06;9.70;;;5.50;;
59093;SDS011;44880;52.814;18.270;2023-09-07T16:59:35;9.50;;;5.80;;
59093;SDS011;44880;52.814;18.270;2023-09-07T17:02:11;9.50;;;5.40;;
59093;SDS011;44880;52.814;18.270;2023-09-07T17:04:58;8.40;;;5.70;;
59093;SDS011;44880;52.814;18.270;2023-09-07T17:07:32;10.60;;;6.00;;
59093;SDS011;44880;52.814;18.270;2023-09-07T17:10:06;12.40;;;7.00;;
59093;SDS011;44880;52.814;18.270;2023-09-07T17:13:03;11.30;;;6.30;;
59093;SDS011;44880;52.814;18.270;2023-09-07T17:15:38;10.10;;;6.60;;
59093;SDS011;44880;52.814;18.270;2023-09-07T17:18:11;10.60;;;6.70;;
59093;SDS011;44880;52.814;18.270;2023-09-07T17:20:45;9.90;;;6.90;;